sensor_id;sensor_type;location;lat;lon;timestamp;pressure;altitude;pressure_sealevel;temperature;humidity
18813;BME280;9534;51.140;6.296;2024-01-30T00:00:42;67510.69;;;7.20;100.00
18813;BME280;9534;51.140;6.296;2024-01-30T00:04:47;67499.16;;;7.08;100.00
18813;BME280;9534;51.140;6.296;2024-01-30T00:08:50;67512.53;;;7.24;100.00
18813;BME280;9534;51.140;6.296;2024-01-30T00:12:53;67509.56;;;7.19;100.00
18813;BME280;9534;51.140;6.296;2024-01-30T00:16:56;67511.81;;;7.21;100.00
18813;BME280;9534;51.140;6.296;2024-01-30T00:21:00;67517.94;;;7.24;100.00
18813;BME280;9534;51.140;6.296;2024-01-30T00:25:03;67519.22;;;7.28;100.00
18813;BME280;9534;51.140;6.296;2024-01-30T00:29:07;67508.44;;;7.28;100.00
18813;BME280;9534;51.140;6.296;2024-01-30T00:33:10;67523.94;;;7.34;100.00
18813;BME280;9534;51.140;6.296;2024-01-30T00:37:14;67528.91;;;7.36;100.00
18813;BME280;9534;51.140;6.296;2024-01-30T00:41:18;67526.03;;;7.33;100.00
18813;BME280;9534;51.140;6.296;2024-01-30T00:45:21;67535.00;;;7.39;100.00
18813;BME280;9534;51.140;6.296;2024-01-30T00:49:24;67526.63;;;7.34;100.00
18813;BME280;9534;51.140;6.296;2024-01-30T00:53:28;67519.78;;;7.28;100.00
18813;BME280;9534;51.140;6.296;2024-01-30T00:57:31;67515.25;;;7.24;100.00
18813;BME280;9534;51.140;6.296;2024-01-30T01:01:34;67514.81;;;7.26;100.00
18813;BME280;9534;51.140;6.296;2024-01-30T01:05:38;67506.44;;;7.21;100.00
18813;BME280;9534;51.140;6.296;2024-01-30T01:09:42;67505.72;;;7.18;100.00
18813;BME280;9534;51.140;6.296;2024-01-30T01:13:45;67504.16;;;7.19;100.00
18813;BME280;9534;51.140;6.296;2024-01-30T01:17:48;67495.47;;;7.09;100.00
18813;BME280;9534;51.140;6.296;2024-01-30T01:21:51;67495.47;;;7.09;100.00
18813;BME280;9534;51.140;6.296;2024-01-30T01:25:56;67498.75;;;7.10;100.00
18813;BME280;9534;51.140;6.296;2024-01-30T01:30:02;67495.47;;;7.09;100.00
18813;BME280;9534;51.140;6.296;2024-01-30T01:34:07;67490.78;;;7.03;100.00
18813;BME280;9534;51.140;6.296;2024-01-30T01:38:10;67472.47;;;6.94;100.00
18813;BME280;9534;51.140;6.296;2024-01-30T01:42:15;67480.53;;;6.94;100.00
18813;BME280;9534;51.140;6.296;2024-01-30T01:46:18;67470.31;;;6.85;100.00
18813;BME280;9534;51.140;6.296;2024-01-30T01:50:21;67470.06;;;6.89;100.00
18813;BME280;9534;51.140;6.296;2024-01-30T01:54:25;67471.59;;;6.88;100.00
18813;BME280;9534;51.140;6.296;2024-01-30T01:58:29;67472.75;;;6.89;100.00
18813;BME280;9534;51.140;6.296;2024-01-30T02:02:32;67483.38;;;6.96;100.00
18813;BME280;9534;51.140;6.296;2024-01-30T02:06:37;67477.72;;;7.01;100.00
18813;BME280;9534;51.140;6.296;2024-01-30T02:10:41;67506.72;;;7.17;100.00
18813;BME280;9534;51.140;6.296;2024-01-30T02:14:45;67514.81;;;7.26;100.00
18813;BME280;9534;51.140;6.296;2024-01-30T02:18:48;67511.81;;;7.21;100.00
18813;BME280;9534;51.140;6.296;2024-01-30T02:22:53;67508.16;;;7.23;100.00
18813;BME280;9534;51.140;6.296;2024-01-30T02:26:57;67507.28;;;7.17;100.00
18813;BME280;9534;51.140;6.296;2024-01-30T02:31:00;67496.47;;;7.08;100.00
18813;BME280;9534;51.140;6.296;2024-01-30T02:35:03;67503.13;;;7.11;100.00
18813;BME280;9534;51.140;6.296;2024-01-30T02:39:07;67489.06;;;7.01;100.00
18813;BME280;9534;51.140;6.296;2024-01-30T02:43:11;67483.38;;;6.96;100.00
18813;BME280;9534;51.140;6.296;2024-01-30T02:47:14;67481.69;;;6.95;100.00
18813;BME280;9534;51.140;6.296;2024-01-30T02:51:17;67476.00;;;6.90;100.00
18813;BME280;9534;51.140;6.296;2024-01-30T02:55:22;67479.97;;;6.93;100.00
18813;BME280;9534;51.140;6.296;2024-01-30T02:59:25;67475.28;;;6.96;100.00
18813;BME280;9534;51.140;6.296;2024-01-30T03:03:28;67490.38;;;7.05;100.00
18813;BME280;9534;51.140;6.296;2024-01-30T03:07:31;67489.66;;;7.02;100.00
18813;BME280;9534;51.140;6.296;2024-01-30T03:11:35;67491.34;;;7.03;100.00
18813;BME280;9534;51.140;6.296;2024-01-30T03:15:38;67498.75;;;7.10;100.00
18813;BME280;9534;51.140;6.296;2024-01-30T03:19:41;67490.22;;;7.02;100.00
18813;BME280;9534;51.140;6.296;2024-01-30T03:23:45;67491.94;;;7.04;100.00
18813;BME280;9534;51.140;6.296;2024-01-30T03:27:49;67484.53;;;6.97;100.00
18813;BME280;9534;51.140;6.296;2024-01-30T03:31:53;67478.41;;;6.94;100.00
18813;BME280;9534;51.140;6.296;2024-01-30T03:35:56;67482.25;;;6.95;100.00
18813;BME280;9534;51.140;6.296;2024-01-30T03:39:59;67469.34;;;6.86;100.00
18813;BME280;9534;51.140;6.296;2024-01-30T03:44:03;67462.22;;;6.75;100.00
18813;BME280;9534;51.140;6.296;2024-01-30T03:48:06;67445.88;;;6.63;100.00
18813;BME280;9534;51.140;6.296;2024-01-30T03:52:09;67450.13;;;6.72;100.00
18813;BME280;9534;51.140;6.296;2024-01-30T03:56:12;67462.94;;;6.78;100.00
18813;BME280;9534;51.140;6.296;2024-01-30T04:00:17;67459.81;;;6.80;100.00
18813;BME280;9534;51.140;6.296;2024-01-30T04:04:20;67468.63;;;6.83;100.00
18813;BME280;9534;51.140;6.296;2024-01-30T04:08:23;67474.31;;;6.88;100.00
18813;BME280;9534;51.140;6.296;2024-01-30T04:12:26;67477.69;;;6.91;100.00
18813;BME280;9534;51.140;6.296;2024-01-30T04:16:30;67472.16;;;6.89;100.00
18813;BME280;9534;51.140;6.296;2024-01-30T04:20:33;67468.63;;;6.83;100.00
18813;BME280;9534;51.140;6.296;2024-01-30T04:24:37;67466.91;;;6.82;100.00
18813;BME280;9534;51.140;6.296;2024-01-30T04:28:41;67456.81;;;6.75;100.00
18813;BME280;9534;51.140;6.296;2024-01-30T04:32:45;67459.09;;;6.77;100.00
18813;BME280;9534;51.140;6.296;2024-01-30T04:36:48;67468.63;;;6.83;100.00
18813;BME280;9534;51.140;6.296;2024-01-30T04:40:51;67470.47;;;6.87;100.00
18813;BME280;9534;51.140;6.296;2024-01-30T04:44:54;67486.94;;;7.02;100.00
18813;BME280;9534;51.140;6.296;2024-01-30T04:48:58;67508.13;;;7.13;100.00
18813;BME280;9534;51.140;6.296;2024-01-30T04:53:01;67504.75;;;7.20;100.00
18813;BME280;9534;51.140;6.296;2024-01-30T04:57:04;67500.03;;;7.13;100.00
18813;BME280;9534;51.140;6.296;2024-01-30T05:01:14;67493.91;;;7.01;100.00
18813;BME280;9534;51.140;6.296;2024-01-30T05:05:18;67468.91;;;6.88;100.00
18813;BME280;9534;51.140;6.296;2024-01-30T05:09:23;67472.03;;;6.86;100.00
18813;BME280;9534;51.140;6.296;2024-01-30T05:13:26;67465.34;;;6.83;100.00
18813;BME280;9534;51.140;6.296;2024-01-30T05:17:29;67460.66;;;6.76;100.00
18813;BME280;9534;51.140;6.296;2024-01-30T05:21:33;67454.13;;;6.75;100.00
18813;BME280;9534;51.140;6.296;2024-01-30T05:25:36;67462.22;;;6.75;100.00
18813;BME280;9534;51.140;6.296;2024-01-30T05:29:39;67445.75;;;6.70;100.00
18813;BME280;9534;51.140;6.296;2024-01-30T05:33:42;67454.13;;;6.75;100.00
18813;BME280;9534;51.140;6.296;2024-01-30T05:37:47;67457.97;;;6.76;100.00
18813;BME280;9534;51.140;6.296;2024-01-30T05:41:50;67469.88;;;6.87;100.00
18813;BME280;9534;51.140;6.296;2024-01-30T05:45:53;67490.22;;;7.02;100.00
18813;BME280;9534;51.140;6.296;2024-01-30T05:49:56;67499.31;;;7.10;100.00
18813;BME280;9534;51.140;6.296;2024-01-30T05:54:01;67504.69;;;7.10;100.00
18813;BME280;9534;51.140;6.296;2024-01-30T05:58:05;67506.13;;;7.16;100.00
18813;BME280;9534;51.140;6.296;2024-01-30T06:02:08;67516.38;;;7.25;100.00
18813;BME280;9534;51.140;6.296;2024-01-30T06:06:11;67511.00;;;7.25;100.00
18813;BME280;9534;51.140;6.296;2024-01-30T06:10:15;67518.22;;;7.29;100.00
18813;BME280;9534;51.140;6.296;2024-01-30T06:14:19;67516.38;;;7.25;100.00
18813;BME280;9534;51.140;6.296;2024-01-30T06:18:22;67519.38;;;7.30;100.00
18813;BME280;9534;51.140;6.296;2024-01-30T06:22:25;67523.34;;;7.33;100.00
18813;BME280;9534;51.140;6.296;2024-01-30T06:26:30;67522.78;;;7.33;100.00
18813;BME280;9534;51.140;6.296;2024-01-30T06:30:33;67522.66;;;7.31;100.00
18813;BME280;9534;51.140;6.296;2024-01-30T06:34:36;67526.63;;;7.34;100.00
18813;BME280;9534;51.140;6.296;2024-01-30T06:38:40;67522.22;;;7.32;100.00
18813;BME280;9534;51.140;6.296;2024-01-30T06:42:45;67514.41;;;7.28;100.00
18813;BME280;9534;51.140;6.296;2024-01-30T06:46:47;67531.91;;;7.41;100.00
18813;BME280;9534;51.140;6.296;2024-01-30T06:50:51;67528.91;;;7.36;100.00
18813;BME280;9534;51.140;6.296;2024-01-30T06:54:55;67524.22;;;7.39;100.00
18813;BME280;9534;51.140;6.296;2024-01-30T06:58:59;67528.47;;;7.38;100.00
18813;BME280;9534;51.140;6.296;2024-01-30T07:03:03;67540.69;;;7.44;100.00
18813;BME280;9534;51.140;6.296;2024-01-30T07:07:06;67535.72;;;7.42;100.00
18813;BME280;9534;51.140;6.296;2024-01-30T07:11:18;67535.16;;;7.41;100.00
18813;BME280;9534;51.140;6.296;2024-01-30T07:15:22;67529.19;;;7.41;100.00
18813;BME280;9534;51.140;6.296;2024-01-30T07:19:25;67539.56;;;7.43;100.00
18813;BME280;9534;51.140;6.296;2024-01-30T07:23:28;67537.59;;;7.46;100.00
18813;BME280;9534;51.140;6.296;2024-01-30T07:27:31;67552.50;;;7.52;100.00
18813;BME280;9534;51.140;6.296;2024-01-30T07:31:36;67547.81;;;7.55;100.00
18813;BME280;9534;51.140;6.296;2024-01-30T07:35:39;67555.50;;;7.57;100.00
18813;BME280;9534;51.140;6.296;2024-01-30T07:39:42;67554.50;;;7.58;100.00
18813;BME280;9534;51.140;6.296;2024-01-30T07:43:45;67554.25;;;7.63;100.00
18813;BME280;9534;51.140;6.296;2024-01-30T07:47:50;67558.38;;;7.69;100.00
18813;BME280;9534;51.140;6.296;2024-01-30T07:51:53;67571.03;;;7.73;100.00
18813;BME280;9534;51.140;6.296;2024-01-30T07:55:56;67574.72;;;7.81;100.00
18813;BME280;9534;51.140;6.296;2024-01-30T07:59:58;67572.44;;;7.79;100.00
18813;BME280;9534;51.140;6.296;2024-01-30T08:04:03;67567.75;;;7.82;100.00
18813;BME280;9534;51.140;6.296;2024-01-30T08:08:06;67584.09;;;7.84;100.00
18813;BME280;9534;51.140;6.296;2024-01-30T08:12:09;67580.81;;;7.84;100.00
18813;BME280;9534;51.140;6.296;2024-01-30T08:16:12;67579.97;;;7.88;100.00
18813;BME280;9534;51.140;6.296;2024-01-30T08:20:17;67591.19;;;7.86;100.00
18813;BME280;9534;51.140;6.296;2024-01-30T08:24:20;67578.97;;;7.80;100.00
18813;BME280;9534;51.140;6.296;2024-01-30T08:28:23;67579.25;;;7.85;100.00
18813;BME280;9534;51.140;6.296;2024-01-30T08:32:26;67584.25;;;7.87;100.00
18813;BME280;9534;51.140;6.296;2024-01-30T08:36:30;67585.38;;;7.88;100.00
18813;BME280;9534;51.140;6.296;2024-01-30T08:40:33;67584.81;;;7.87;100.00
18813;BME280;9534;51.140;6.296;2024-01-30T08:44:37;67594.19;;;7.91;100.00
18813;BME280;9534;51.140;6.296;2024-01-30T08:48:40;67591.50;;;7.91;100.00
18813;BME280;9534;51.140;6.296;2024-01-30T08:52:45;67598.47;;;7.99;100.00
18813;BME280;9534;51.140;6.296;2024-01-30T08:56:51;67607.31;;;8.02;100.00
18813;BME280;9534;51.140;6.296;2024-01-30T09:00:54;67611.16;;;8.13;100.00
18813;BME280;9534;51.140;6.296;2024-01-30T09:04:58;67623.09;;;8.23;100.00
18813;BME280;9534;51.140;6.296;2024-01-30T09:09:03;67642.91;;;8.38;100.00
18813;BME280;9534;51.140;6.296;2024-01-30T09:13:06;67649.91;;;8.47;100.00
18813;BME280;9534;51.140;6.296;2024-01-30T09:17:09;67658.59;;;8.57;100.00
18813;BME280;9534;51.140;6.296;2024-01-30T09:21:13;67684.91;;;8.72;100.00
18813;BME280;9534;51.140;6.296;2024-01-30T09:25:17;67716.53;;;9.05;100.00
18813;BME280;9534;51.140;6.296;2024-01-30T09:29:21;67760.47;;;9.43;100.00
18813;BME280;9534;51.140;6.296;2024-01-30T09:33:24;67807.91;;;9.87;100.00
18813;BME280;9534;51.140;6.296;2024-01-30T09:37:28;67852.28;;;10.23;100.00
18813;BME280;9534;51.140;6.296;2024-01-30T09:41:33;67879.09;;;10.47;100.00
18813;BME280;9534;51.140;6.296;2024-01-30T09:45:42;67912.94;;;10.79;100.00
18813;BME280;9534;51.140;6.296;2024-01-30T09:49:56;67941.34;;;11.01;100.00
18813;BME280;9534;51.140;6.296;2024-01-30T09:54:01;67969.91;;;11.26;100.00
18813;BME280;9534;51.140;6.296;2024-01-30T09:58:05;67987.03;;;11.41;100.00
18813;BME280;9534;51.140;6.296;2024-01-30T10:02:08;68010.44;;;11.61;100.00
18813;BME280;9534;51.140;6.296;2024-01-30T10:06:14;68033.06;;;11.76;100.00
18813;BME280;9534;51.140;6.296;2024-01-30T10:10:21;68045.19;;;11.89;100.00
18813;BME280;9534;51.140;6.296;2024-01-30T10:14:24;68059.47;;;12.02;100.00
18813;BME280;9534;51.140;6.296;2024-01-30T10:18:28;68055.03;;;12.00;100.00
18813;BME280;9534;51.140;6.296;2024-01-30T10:22:32;68059.31;;;12.09;100.00
18813;BME280;9534;51.140;6.296;2024-01-30T10:26:37;68077.63;;;12.15;100.00
18813;BME280;9534;51.140;6.296;2024-01-30T10:30:40;68079.03;;;12.21;100.00
18813;BME280;9534;51.140;6.296;2024-01-30T10:34:43;68091.63;;;12.32;100.00
18813;BME280;9534;51.140;6.296;2024-01-30T10:38:47;68077.03;;;12.24;100.00
18813;BME280;9534;51.140;6.296;2024-01-30T10:42:52;68093.91;;;12.34;100.00
18813;BME280;9534;51.140;6.296;2024-01-30T10:47:00;68105.34;;;12.44;100.00
18813;BME280;9534;51.140;6.296;2024-01-30T10:51:06;68109.66;;;12.43;100.00
18813;BME280;9534;51.140;6.296;2024-01-30T10:55:10;68100.94;;;12.33;100.00
18813;BME280;9534;51.140;6.296;2024-01-30T10:59:13;68080.19;;;12.22;100.00
18813;BME280;9534;51.140;6.296;2024-01-30T11:03:17;68083.63;;;12.25;100.00
18813;BME280;9534;51.140;6.296;2024-01-30T11:07:23;68086.34;;;12.25;100.00
18813;BME280;9534;51.140;6.296;2024-01-30T11:11:28;68074.31;;;12.24;100.00
18813;BME280;9534;51.140;6.296;2024-01-30T11:15:31;68084.19;;;12.26;100.00
18813;BME280;9534;51.140;6.296;2024-01-30T11:19:36;68083.19;;;12.27;100.00
18813;BME280;9534;51.140;6.296;2024-01-30T11:23:39;68095.91;;;12.31;100.00
18813;BME280;9534;51.140;6.296;2024-01-30T11:27:43;68091.63;;;12.32;100.00
18813;BME280;9534;51.140;6.296;2024-01-30T11:31:52;68099.06;;;12.38;100.00
18813;BME280;9534;51.140;6.296;2024-01-30T11:35:56;68095.91;;;12.31;100.00
18813;BME280;9534;51.140;6.296;2024-01-30T11:40:00;68097.66;;;12.33;100.00
18813;BME280;9534;51.140;6.296;2024-01-30T11:44:05;68081.63;;;12.28;100.00
18813;BME280;9534;51.140;6.296;2024-01-30T11:48:08;68092.50;;;12.28;100.00
18813;BME280;9534;51.140;6.296;2024-01-30T11:52:13;68095.34;;;12.31;100.00
18813;BME280;9534;51.140;6.296;2024-01-30T11:56:16;68094.22;;;12.30;100.00
18813;BME280;9534;51.140;6.296;2024-01-30T12:00:20;68091.06;;;12.32;100.00
18813;BME280;9534;51.140;6.296;2024-01-30T12:04:23;68090.19;;;12.26;100.00
18813;BME280;9534;51.140;6.296;2024-01-30T12:08:30;68079.75;;;12.24;100.00
18813;BME280;9534;51.140;6.296;2024-01-30T12:12:33;68080.78;;;12.23;100.00
18813;BME280;9534;51.140;6.296;2024-01-30T12:16:38;68078.06;;;12.23;100.00
18813;BME280;9534;51.140;6.296;2024-01-30T12:20:41;68082.47;;;12.24;100.00
18813;BME280;9534;51.140;6.296;2024-01-30T12:24:44;68080.63;;;12.20;100.00
18813;BME280;9534;51.140;6.296;2024-01-30T12:28:48;68082.47;;;12.24;100.00
18813;BME280;9534;51.140;6.296;2024-01-30T12:32:52;68084.06;;;12.23;100.00
18813;BME280;9534;51.140;6.296;2024-01-30T12:36:56;68082.47;;;12.24;100.00
18813;BME280;9534;51.140;6.296;2024-01-30T12:40:59;68079.75;;;12.24;100.00
18813;BME280;9534;51.140;6.296;2024-01-30T12:45:03;68082.47;;;12.24;100.00
18813;BME280;9534;51.140;6.296;2024-01-30T12:49:08;68087.06;;;12.28;100.00
18813;BME280;9534;51.140;6.296;2024-01-30T12:53:10;68083.63;;;12.25;100.00
18813;BME280;9534;51.140;6.296;2024-01-30T12:57:14;68086.78;;;12.23;100.00
18813;BME280;9534;51.140;6.296;2024-01-30T13:01:17;68085.63;;;12.22;100.00
18813;BME280;9534;51.140;6.296;2024-01-30T13:05:22;68073.31;;;12.16;100.00
18813;BME280;9534;51.140;6.296;2024-01-30T13:09:26;68072.63;;;12.13;100.00
18813;BME280;9534;51.140;6.296;2024-01-30T13:13:29;68069.91;;;12.13;100.00
18813;BME280;9534;51.140;6.296;2024-01-30T13:17:32;68081.34;;;12.23;100.00
18813;BME280;9534;51.140;6.296;2024-01-30T13:21:36;68094.94;;;12.33;100.00
18813;BME280;9534;51.140;6.296;2024-01-30T13:25:39;68096.50;;;12.32;100.00
18813;BME280;9534;51.140;6.296;2024-01-30T13:29:42;68087.06;;;12.28;100.00
18813;BME280;9534;51.140;6.296;2024-01-30T13:33:45;68098.50;;;12.38;100.00
18813;BME280;9534;51.140;6.296;2024-01-30T13:37:49;68114.50;;;12.52;100.00
18813;BME280;9534;51.140;6.296;2024-01-30T13:41:52;68120.66;;;12.55;100.00
18813;BME280;9534;51.140;6.296;2024-01-30T13:45:55;68172.28;;;13.12;100.00
18813;BME280;9534;51.140;6.296;2024-01-30T13:49:59;68219.50;;;13.48;100.00
18813;BME280;9534;51.140;6.296;2024-01-30T13:54:06;68228.25;;;13.49;100.00
18813;BME280;9534;51.140;6.296;2024-01-30T13:58:09;68159.97;;;12.87;100.00
18813;BME280;9534;51.140;6.296;2024-01-30T14:02:12;68124.38;;;12.63;100.00
18813;BME280;9534;51.140;6.296;2024-01-30T14:06:15;68115.66;;;12.53;100.00
18813;BME280;9534;51.140;6.296;2024-01-30T14:10:20;68102.34;;;12.39;100.00
18813;BME280;9534;51.140;6.296;2024-01-30T14:14:23;68093.63;;;12.29;100.00
18813;BME280;9534;51.140;6.296;2024-01-30T14:18:26;68089.22;;;12.28;100.00
18813;BME280;9534;51.140;6.296;2024-01-30T14:22:28;68072.06;;;12.13;100.00
18813;BME280;9534;51.140;6.296;2024-01-30T14:26:33;68059.91;;;12.00;100.00
18813;BME280;9534;51.140;6.296;2024-01-30T14:30:36;68054.91;;;11.98;100.00
18813;BME280;9534;51.140;6.296;2024-01-30T14:34:39;68041.91;;;11.89;100.00
18813;BME280;9534;51.140;6.296;2024-01-30T14:38:42;68042.91;;;11.87;100.00
18813;BME280;9534;51.140;6.296;2024-01-30T14:42:48;68037.75;;;11.83;100.00
18813;BME280;9534;51.140;6.296;2024-01-30T14:46:51;68029.31;;;11.78;100.00
18813;BME280;9534;51.140;6.296;2024-01-30T14:50:54;68024.91;;;11.76;100.00
18813;BME280;9534;51.140;6.296;2024-01-30T14:54:57;68029.63;;;11.73;100.00
18813;BME280;9534;51.140;6.296;2024-01-30T14:59:02;68018.91;;;11.66;100.00
18813;BME280;9534;51.140;6.296;2024-01-30T15:03:05;68009.88;;;11.61;100.00
18813;BME280;9534;51.140;6.296;2024-01-30T15:07:08;68013.91;;;11.64;100.00
18813;BME280;9534;51.140;6.296;2024-01-30T15:11:12;68011.31;;;11.57;100.00
18813;BME280;9534;51.140;6.296;2024-01-30T15:15:17;68004.19;;;11.56;100.00
18813;BME280;9534;51.140;6.296;2024-01-30T15:19:20;68003.31;;;11.50;100.00
18813;BME280;9534;51.140;6.296;2024-01-30T15:23:23;67992.47;;;11.41;100.00
18813;BME280;9534;51.140;6.296;2024-01-30T15:27:26;67981.88;;;11.36;100.00
18813;BME280;9534;51.140;6.296;2024-01-30T15:31:33;67977.75;;;11.30;100.00
18813;BME280;9534;51.140;6.296;2024-01-30T15:35:36;68019.63;;;11.69;100.00
18813;BME280;9534;51.140;6.296;2024-01-30T15:39:40;68043.03;;;11.90;100.00
18813;BME280;9534;51.140;6.296;2024-01-30T15:43:43;68034.19;;;11.77;100.00
18813;BME280;9534;51.140;6.296;2024-01-30T15:47:47;68015.44;;;11.63;100.00
18813;BME280;9534;51.140;6.296;2024-01-30T15:51:50;68007.44;;;11.56;100.00
18813;BME280;9534;51.140;6.296;2024-01-30T15:55:53;67945.78;;;11.03;100.00
18813;BME280;9534;51.140;6.296;2024-01-30T15:59:56;67913.78;;;10.75;100.00
18813;BME280;9534;51.140;6.296;2024-01-30T16:04:01;67901.81;;;10.64;100.00
18813;BME280;9534;51.140;6.296;2024-01-30T16:08:05;67888.25;;;10.55;100.00
18813;BME280;9534;51.140;6.296;2024-01-30T16:12:08;67889.38;;;10.56;100.00
18813;BME280;9534;51.140;6.296;2024-01-30T16:16:11;67886.81;;;10.49;100.00
18813;BME280;9534;51.140;6.296;2024-01-30T16:20:16;67879.69;;;10.47;100.00
18813;BME280;9534;51.140;6.296;2024-01-30T16:24:19;67880.25;;;10.48;100.00
18813;BME280;9534;51.140;6.296;2024-01-30T16:28:24;67874.53;;;10.43;100.00
18813;BME280;9534;51.140;6.296;2024-01-30T16:32:28;67872.56;;;10.36;100.00
18813;BME280;9534;51.140;6.296;2024-01-30T16:36:35;67868.13;;;10.35;100.00
18813;BME280;9534;51.140;6.296;2024-01-30T16:40:39;67862.44;;;10.30;100.00
18813;BME280;9534;51.140;6.296;2024-01-30T16:44:42;67864.00;;;10.29;100.00
18813;BME280;9534;51.140;6.296;2024-01-30T16:48:45;67859.44;;;10.25;100.00
18813;BME280;9534;51.140;6.296;2024-01-30T16:52:49;67858.28;;;10.24;100.00
18813;BME280;9534;51.140;6.296;2024-01-30T16:56:52;67853.84;;;10.22;100.00
18813;BME280;9534;51.140;6.296;2024-01-30T17:00:59;67835.00;;;10.06;100.00
18813;BME280;9534;51.140;6.296;2024-01-30T17:05:03;67821.75;;;9.92;100.00
18813;BME280;9534;51.140;6.296;2024-01-30T17:09:25;67806.78;;;9.86;100.00
18813;BME280;9534;51.140;6.296;2024-01-30T17:13:30;67799.09;;;9.75;100.00
18813;BME280;9534;51.140;6.296;2024-01-30T17:17:34;67799.22;;;9.77;100.00
18813;BME280;9534;51.140;6.296;2024-01-30T17:21:38;67800.06;;;9.73;100.00
18813;BME280;9534;51.140;6.296;2024-01-30T17:25:42;67791.22;;;9.70;100.00
18813;BME280;9534;51.140;6.296;2024-01-30T17:29:45;67779.81;;;9.60;100.00
18813;BME280;9534;51.140;6.296;2024-01-30T17:33:50;67782.97;;;9.58;100.00
18813;BME280;9534;51.140;6.296;2024-01-30T17:37:54;67762.59;;;9.43;100.00
18813;BME280;9534;51.140;6.296;2024-01-30T17:41:59;67763.16;;;9.43;100.00
18813;BME280;9534;51.140;6.296;2024-01-30T17:46:02;67764.72;;;9.42;100.00
18813;BME280;9534;51.140;6.296;2024-01-30T17:50:07;67757.59;;;9.41;100.00
18813;BME280;9534;51.140;6.296;2024-01-30T17:54:10;67746.47;;;9.26;100.00
18813;BME280;9534;51.140;6.296;2024-01-30T17:58:17;67739.94;;;9.25;100.00
18813;BME280;9534;51.140;6.296;2024-01-30T18:02:20;67729.97;;;9.21;100.00
18813;BME280;9534;51.140;6.296;2024-01-30T18:06:24;67729.38;;;9.11;100.00
18813;BME280;9534;51.140;6.296;2024-01-30T18:10:27;67730.22;;;9.17;100.00
18813;BME280;9534;51.140;6.296;2024-01-30T18:14:31;67726.38;;;9.06;100.00
18813;BME280;9534;51.140;6.296;2024-01-30T18:18:35;67718.81;;;9.07;100.00
18813;BME280;9534;51.140;6.296;2024-01-30T18:22:38;67725.94;;;9.08;100.00
18813;BME280;9534;51.140;6.296;2024-01-30T18:26:43;67714.13;;;9.00;100.00
18813;BME280;9534;51.140;6.296;2024-01-30T18:30:47;67718.69;;;9.04;100.00
18813;BME280;9534;51.140;6.296;2024-01-30T18:34:50;67723.09;;;9.06;100.00
18813;BME280;9534;51.140;6.296;2024-01-30T18:38:55;67718.69;;;9.04;100.00
18813;BME280;9534;51.140;6.296;2024-01-30T18:42:58;67714.84;;;9.03;100.00
18813;BME280;9534;51.140;6.296;2024-01-30T18:47:07;67714.13;;;9.00;100.00
18813;BME280;9534;51.140;6.296;2024-01-30T18:51:13;67715.69;;;8.99;100.00
18813;BME280;9534;51.140;6.296;2024-01-30T18:55:17;67707.72;;;8.92;100.00
18813;BME280;9534;51.140;6.296;2024-01-30T18:59:21;67702.72;;;8.90;100.00
18813;BME280;9534;51.140;6.296;2024-01-30T19:03:25;67704.00;;;8.84;100.00
18813;BME280;9534;51.140;6.296;2024-01-30T19:07:28;67673.81;;;8.67;100.00
18813;BME280;9534;51.140;6.296;2024-01-30T19:11:33;67656.59;;;8.50;100.00
18813;BME280;9534;51.140;6.296;2024-01-30T19:15:36;67632.34;;;8.24;100.00
18813;BME280;9534;51.140;6.296;2024-01-30T19:19:40;67617.69;;;8.14;100.00
18813;BME280;9534;51.140;6.296;2024-01-30T19:23:43;67608.88;;;8.11;100.00
18813;BME280;9534;51.140;6.296;2024-01-30T19:27:46;67619.53;;;8.18;100.00
18813;BME280;9534;51.140;6.296;2024-01-30T19:31:49;67619.97;;;8.16;100.00
18813;BME280;9534;51.140;6.296;2024-01-30T19:35:54;67621.09;;;8.17;100.00
18813;BME280;9534;51.140;6.296;2024-01-30T19:39:57;67621.41;;;8.22;100.00
18813;BME280;9534;51.140;6.296;2024-01-30T19:44:00;67623.69;;;8.24;100.00
18813;BME280;9534;51.140;6.296;2024-01-30T19:48:03;67624.09;;;8.22;100.00
18813;BME280;9534;51.140;6.296;2024-01-30T19:52:07;67627.94;;;8.23;100.00
18813;BME280;9534;51.140;6.296;2024-01-30T19:56:11;67619.13;;;8.20;100.00
18813;BME280;9534;51.140;6.296;2024-01-30T20:00:16;67619.13;;;8.20;100.00
18813;BME280;9534;51.140;6.296;2024-01-30T20:04:19;67619.13;;;8.20;100.00
18813;BME280;9534;51.140;6.296;2024-01-30T20:08:24;67623.38;;;8.19;100.00
18813;BME280;9534;51.140;6.296;2024-01-30T20:12:29;67610.72;;;8.15;100.00
18813;BME280;9534;51.140;6.296;2024-01-30T20:16:35;67618.28;;;8.14;100.00
18813;BME280;9534;51.140;6.296;2024-01-30T20:20:39;67612.16;;;8.11;100.00
18813;BME280;9534;51.140;6.296;2024-01-30T20:24:43;67615.41;;;8.12;100.00
18813;BME280;9534;51.140;6.296;2024-01-30T20:28:51;67617.69;;;8.14;100.00
18813;BME280;9534;51.140;6.296;2024-01-30T20:32:56;67614.69;;;8.09;100.00
18813;BME280;9534;51.140;6.296;2024-01-30T20:37:01;67609.72;;;8.07;100.00
18813;BME280;9534;51.140;6.296;2024-01-30T20:41:05;67610.84;;;8.08;100.00
18813;BME280;9534;51.140;6.296;2024-01-30T20:45:10;67603.59;;;8.04;100.00
18813;BME280;9534;51.140;6.296;2024-01-30T20:49:13;67608.56;;;8.06;100.00
18813;BME280;9534;51.140;6.296;2024-01-30T20:53:18;67599.34;;;8.05;100.00
18813;BME280;9534;51.140;6.296;2024-01-30T20:57:22;67600.34;;;8.03;100.00
18813;BME280;9534;51.140;6.296;2024-01-30T21:01:25;67599.47;;;7.98;100.00
18813;BME280;9534;51.140;6.296;2024-01-30T21:05:28;67599.47;;;7.98;100.00
18813;BME280;9534;51.140;6.296;2024-01-30T21:09:31;67599.47;;;7.98;100.00
18813;BME280;9534;51.140;6.296;2024-01-30T21:13:36;67594.50;;;7.96;100.00
18813;BME280;9534;51.140;6.296;2024-01-30T21:17:39;67594.91;;;7.94;100.00
18813;BME280;9534;51.140;6.296;2024-01-30T21:21:42;67588.66;;;7.88;100.00
18813;BME280;9534;51.140;6.296;2024-01-30T21:25:45;67583.53;;;7.84;100.00
18813;BME280;9534;51.140;6.296;2024-01-30T21:29:50;67571.44;;;7.80;100.00
18813;BME280;9534;51.140;6.296;2024-01-30T21:33:54;67583.38;;;7.81;100.00
18813;BME280;9534;51.140;6.296;2024-01-30T21:37:58;67573.44;;;7.77;100.00
18813;BME280;9534;51.140;6.296;2024-01-30T21:42:01;67572.44;;;7.79;100.00